createdAt,value
2022-08-24T00:02:28.672Z,16.37
2022-08-24T00:05:15.138Z,16.48
2022-08-24T00:08:02.770Z,18.58
2022-08-24T00:10:49.475Z,16.02
2022-08-24T00:13:36.716Z,16.70
2022-08-24T00:16:26.858Z,16.65
2022-08-24T00:19:13.201Z,20.05
2022-08-24T00:22:00.361Z,16.65
2022-08-24T00:24:46.714Z,20.17
2022-08-24T00:27:33.123Z,16.37
2022-08-24T00:30:20.904Z,17.40
2022-08-24T00:33:08.330Z,18.87
2022-08-24T00:35:54.423Z,19.98
2022-08-24T00:38:40.767Z,19.95
2022-08-24T00:41:28.533Z,18.48
2022-08-24T00:44:16.600Z,20.00
2022-08-24T00:47:06.959Z,17.90
2022-08-24T00:50:00.131Z,18.80
2022-08-24T00:52:50.790Z,25.33
2022-08-24T00:55:49.345Z,20.83
2022-08-24T00:58:39.737Z,19.37
2022-08-24T01:01:26.492Z,19.93
2022-08-24T01:04:18.513Z,24.85
2022-08-24T01:07:05.083Z,20.85
2022-08-24T01:10:00.201Z,22.00
2022-08-24T01:12:59.523Z,22.45
2022-08-24T01:15:49.108Z,25.08
2022-08-24T01:18:51.738Z,20.35
2022-08-24T01:21:44.361Z,21.10
2022-08-24T01:24:31.101Z,23.83
2022-08-24T01:27:19.229Z,24.40
2022-08-24T01:30:13.576Z,23.67
2022-08-24T01:33:02.574Z,24.52
2022-08-24T01:35:49.082Z,23.65
2022-08-24T01:38:35.756Z,22.23
2022-08-24T01:41:24.726Z,26.73
2022-08-24T01:44:15.226Z,25.75
2022-08-24T01:47:02.897Z,24.48
2022-08-24T01:49:53.760Z,24.65
2022-08-24T01:53:03.972Z,24.23
2022-08-24T01:55:48.900Z,22.98
2022-08-24T01:58:35.836Z,24.45
2022-08-24T02:01:22.172Z,25.23
2022-08-24T02:04:09.691Z,24.15
2022-08-24T02:06:56.010Z,23.77
2022-08-24T02:09:42.260Z,22.55
2022-08-24T02:12:28.470Z,24.23
2022-08-24T02:15:14.974Z,27.40
2022-08-24T02:18:01.287Z,24.12
2022-08-24T02:20:47.955Z,25.00
2022-08-24T02:23:35.428Z,24.90
2022-08-24T02:26:21.760Z,23.15
2022-08-24T02:29:08.672Z,26.83
2022-08-24T02:31:55.168Z,25.17
2022-08-24T02:34:41.417Z,29.00
2022-08-24T02:37:27.883Z,28.65
2022-08-24T02:40:14.521Z,28.70
2022-08-24T02:43:01.300Z,30.92
2022-08-24T02:45:50.354Z,33.75
2022-08-24T02:48:37.141Z,34.40
2022-08-24T02:51:26.433Z,35.65
2022-08-24T02:54:19.563Z,36.30
2022-08-24T02:57:05.927Z,37.00
2022-08-24T02:59:52.299Z,36.80
2022-08-24T03:02:40.003Z,38.08
2022-08-24T03:05:26.655Z,37.88
2022-08-24T03:08:12.862Z,40.58
2022-08-24T03:11:00.476Z,37.00
2022-08-24T03:13:46.834Z,37.90
2022-08-24T03:16:33.461Z,41.42
2022-08-24T03:19:20.309Z,39.85
2022-08-24T03:22:06.801Z,43.45
2022-08-24T03:24:53.243Z,42.85
2022-08-24T03:27:41.067Z,39.40
2022-08-24T03:30:27.983Z,44.33
2022-08-24T03:33:14.649Z,38.28
2022-08-24T03:36:00.966Z,39.35
2022-08-24T03:38:47.415Z,36.03
2022-08-24T03:41:35.382Z,35.65
2022-08-24T03:44:25.801Z,40.42
2022-08-24T03:47:13.352Z,39.97
2022-08-24T03:49:59.837Z,35.22
2022-08-24T03:52:47.306Z,34.42
2022-08-24T03:55:33.760Z,37.05
2022-08-24T03:58:20.124Z,35.45
2022-08-24T04:01:06.520Z,33.38
2022-08-24T04:03:55.624Z,36.20
2022-08-24T04:06:44.596Z,38.28
2022-08-24T04:09:31.534Z,36.53
2022-08-24T04:12:17.662Z,32.00
2022-08-24T04:15:05.826Z,34.78
2022-08-24T04:17:53.028Z,33.33
2022-08-24T04:20:43.227Z,30.80
2022-08-24T04:23:46.600Z,30.20
2022-08-24T04:26:44.866Z,31.90
2022-08-24T04:29:35.879Z,32.70
2022-08-24T04:32:22.238Z,32.97
2022-08-24T04:35:09.440Z,35.42
2022-08-24T04:37:56.167Z,32.08
2022-08-24T04:40:44.548Z,31.50
2022-08-24T04:46:20.604Z,31.42
2022-08-24T04:49:07.077Z,30.15
2022-08-24T04:51:53.976Z,32.72
2022-08-24T04:54:41.405Z,32.08
2022-08-24T04:57:27.824Z,32.33
2022-08-24T05:00:14.994Z,29.85
2022-08-24T05:03:01.710Z,29.85
2022-08-24T05:05:49.503Z,28.62
2022-08-24T05:08:35.794Z,28.05
2022-08-24T05:11:22.874Z,30.58
2022-08-24T05:14:11.242Z,28.20
2022-08-24T05:16:59.072Z,26.37
2022-08-24T05:19:45.601Z,27.55
2022-08-24T05:22:31.915Z,29.12
2022-08-24T05:25:18.966Z,29.42
2022-08-24T05:28:06.066Z,25.37
2022-08-24T05:30:52.159Z,31.12
2022-08-24T05:33:39.041Z,26.95
2022-08-24T05:36:28.997Z,29.52
2022-08-24T05:39:15.821Z,27.55
2022-08-24T05:42:02.846Z,27.95
2022-08-24T05:44:50.838Z,26.80
2022-08-24T05:47:37.388Z,30.85
2022-08-24T05:50:24.673Z,27.85
2022-08-24T05:53:13.349Z,24.45
2022-08-24T05:56:05.024Z,22.15
2022-08-24T05:58:51.160Z,27.20
2022-08-24T06:01:42.179Z,22.30
2022-08-24T06:04:31.849Z,22.50
2022-08-24T06:07:18.546Z,22.02
2022-08-24T06:10:32.787Z,26.48
2022-08-24T06:13:12.214Z,19.70
2022-08-24T06:16:21.963Z,17.40
2022-08-24T06:19:10.120Z,21.52
2022-08-24T06:21:56.617Z,23.20
2022-08-24T06:25:01.770Z,17.80
2022-08-24T06:27:48.261Z,15.23
2022-08-24T06:30:35.005Z,16.08
2022-08-24T06:33:22.115Z,15.57
2022-08-24T06:36:08.858Z,15.60
2022-08-24T06:38:55.292Z,13.82
2022-08-24T06:41:42.443Z,15.00
2022-08-24T06:44:29.173Z,13.52
2022-08-24T06:47:16.988Z,13.45
2022-08-24T06:50:03.811Z,13.25
2022-08-24T06:52:50.256Z,13.70
2022-08-24T06:55:36.937Z,11.73
2022-08-24T06:58:28.728Z,11.73
2022-08-24T07:01:20.586Z,12.43
2022-08-24T07:04:07.150Z,13.45
2022-08-24T07:06:56.367Z,14.20
2022-08-24T07:09:42.865Z,12.95
2022-08-24T07:12:30.175Z,12.48
2022-08-24T07:15:16.737Z,11.95
2022-08-24T07:18:09.936Z,12.30
2022-08-24T07:21:01.242Z,12.27
2022-08-24T07:23:55.233Z,12.57
2022-08-24T07:26:41.666Z,10.87
2022-08-24T07:29:47.211Z,12.30
2022-08-24T07:32:35.251Z,11.73
2022-08-24T07:35:22.186Z,10.98
2022-08-24T07:38:08.791Z,11.95
2022-08-24T07:41:20.050Z,10.77
2022-08-24T07:44:01.479Z,13.48
2022-08-24T07:46:49.493Z,8.20
2022-08-24T07:49:39.569Z,10.70
2022-08-24T07:52:26.218Z,7.40
2022-08-24T07:55:13.562Z,8.55
2022-08-24T07:58:00.880Z,8.05
2022-08-24T08:00:48.433Z,9.82
2022-08-24T08:03:34.729Z,6.40
2022-08-24T08:06:21.065Z,9.43
2022-08-24T08:09:08.098Z,8.38
2022-08-24T08:11:54.378Z,10.07
2022-08-24T08:14:40.716Z,8.98
2022-08-24T08:17:27.558Z,9.02
2022-08-24T08:20:14.545Z,9.00
2022-08-24T08:23:25.271Z,8.35
2022-08-24T08:26:17.542Z,9.52
2022-08-24T08:29:04.381Z,10.32
2022-08-24T08:31:52.320Z,6.60
2022-08-24T08:34:39.338Z,8.38
2022-08-24T08:37:26.337Z,7.00
2022-08-24T08:40:23.748Z,9.95
2022-08-24T08:43:18.069Z,9.32
2022-08-24T08:46:24.357Z,7.43
2022-08-24T08:49:47.292Z,8.98
2022-08-24T08:52:52.236Z,5.37
2022-08-24T08:55:57.427Z,11.07
2022-08-24T08:59:01.659Z,7.93
2022-08-24T09:02:15.235Z,8.00
2022-08-24T09:05:07.400Z,9.63
2022-08-24T09:08:15.253Z,8.30
2022-08-24T09:11:20.627Z,8.80
2022-08-24T09:14:42.483Z,8.88
2022-08-24T09:17:56.576Z,11.23
2022-08-24T09:21:14.569Z,9.15
2022-08-24T09:24:40.894Z,8.38
2022-08-24T09:27:52.259Z,9.93
2022-08-24T09:31:05.589Z,9.57
2022-08-24T09:34:20.372Z,10.18
2022-08-24T09:37:09.489Z,9.07
2022-08-24T09:40:23.967Z,8.98
2022-08-24T09:43:36.933Z,9.00
2022-08-24T09:46:26.546Z,11.45
2022-08-24T09:49:27.965Z,7.97
2022-08-24T09:52:44.429Z,10.82
2022-08-24T09:56:05.022Z,8.88
2022-08-24T09:59:04.438Z,6.18
2022-08-24T10:02:09.650Z,10.13
2022-08-24T10:05:21.129Z,7.65
2022-08-24T10:08:25.388Z,7.03
2022-08-24T10:11:24.046Z,8.15
2022-08-24T10:14:19.350Z,9.55
2022-08-24T10:17:23.854Z,7.57
2022-08-24T10:20:16.393Z,12.43
2022-08-24T10:23:30.346Z,13.02
2022-08-24T10:26:26.456Z,9.57
2022-08-24T10:30:08.683Z,10.98
2022-08-24T10:33:20.049Z,9.38
2022-08-24T10:36:41.588Z,9.73
2022-08-24T10:40:09.615Z,11.05
2022-08-24T10:43:34.363Z,9.75
2022-08-24T10:46:39.115Z,9.52
2022-08-24T10:49:34.839Z,8.93
2022-08-24T10:52:40.111Z,12.13
2022-08-24T10:55:30.406Z,10.85
2022-08-24T10:58:51.893Z,10.75
2022-08-24T11:01:39.368Z,12.05
2022-08-24T11:04:29.260Z,11.43
2022-08-24T11:07:19.136Z,10.27
2022-08-24T11:10:08.912Z,13.75
2022-08-24T11:12:56.029Z,10.98
2022-08-24T11:15:55.203Z,12.75
2022-08-24T11:18:49.466Z,13.00
2022-08-24T11:21:46.929Z,10.20
2022-08-24T11:24:43.402Z,13.10
2022-08-24T11:27:34.928Z,12.63
2022-08-24T11:30:21.475Z,11.35
2022-08-24T11:33:27.536Z,13.05
2022-08-24T11:36:21.457Z,13.18
2022-08-24T11:39:25.777Z,12.18
2022-08-24T11:42:29.205Z,14.60
2022-08-24T11:45:31.560Z,14.52
2022-08-24T11:48:46.633Z,12.50
2022-08-24T11:51:51.335Z,17.08
2022-08-24T11:55:05.323Z,12.55
2022-08-24T11:58:00.380Z,15.65
2022-08-24T12:01:02.317Z,15.30
2022-08-24T12:04:12.173Z,18.62
2022-08-24T12:07:39.491Z,13.13
2022-08-24T12:10:55.915Z,11.90
2022-08-24T12:14:10.485Z,11.10
2022-08-24T12:17:02.734Z,19.08
2022-08-24T12:19:53.229Z,10.57
2022-08-24T12:22:40.190Z,14.60
2022-08-24T12:25:50.702Z,15.77
2022-08-24T12:28:41.535Z,18.67
2022-08-24T12:31:47.324Z,23.65
2022-08-24T12:34:36.948Z,24.10
2022-08-24T12:37:36.773Z,21.95
2022-08-24T12:40:33.568Z,19.20
2022-08-24T12:43:40.321Z,18.35
2022-08-24T12:46:27.330Z,22.75
2022-08-24T12:49:25.958Z,23.27
2022-08-24T12:52:50.546Z,22.23
2022-08-24T12:55:58.231Z,24.02
2022-08-24T12:59:20.087Z,24.58
2022-08-24T13:04:52.946Z,25.02
2022-08-24T13:07:43.883Z,22.73
2022-08-24T13:10:38.969Z,28.08
2022-08-24T13:13:42.460Z,23.52
2022-08-24T13:16:57.065Z,23.40
2022-08-24T13:19:46.105Z,23.45
2022-08-24T13:23:07.088Z,22.83
2022-08-24T13:25:55.852Z,23.90
2022-08-24T13:28:50.265Z,22.83
2022-08-24T13:31:49.193Z,22.13
2022-08-24T13:34:38.057Z,22.27
2022-08-24T13:37:27.131Z,23.65
2022-08-24T13:40:19.017Z,23.62
2022-08-24T13:43:20.293Z,22.67
2022-08-24T13:46:44.525Z,22.70
2022-08-24T13:49:36.531Z,24.37
2022-08-24T13:52:32.442Z,24.52
2022-08-24T13:55:28.917Z,23.33
2022-08-24T13:58:34.668Z,24.10
2022-08-24T14:01:44.638Z,23.67
2022-08-24T14:04:39.863Z,20.45
2022-08-24T14:07:33.944Z,24.45
2022-08-24T14:10:23.634Z,21.52
2022-08-24T14:13:26.679Z,24.45
2022-08-24T14:17:19.348Z,29.75
2022-08-24T14:20:27.798Z,26.12
2022-08-24T14:23:46.161Z,21.05
2022-08-24T14:26:38.845Z,23.85
2022-08-24T14:29:28.247Z,31.37
2022-08-24T14:32:34.953Z,30.02
2022-08-24T14:35:41.495Z,26.73
2022-08-24T14:38:52.897Z,23.73
2022-08-24T14:42:06.118Z,23.65
2022-08-24T14:44:55.881Z,24.48
2022-08-24T14:48:00.883Z,27.62
2022-08-24T14:51:09.074Z,24.27
2022-08-24T14:54:03.753Z,22.40
2022-08-24T14:57:13.182Z,25.12
2022-08-24T15:00:17.105Z,25.25
2022-08-24T15:03:31.698Z,24.48
2022-08-24T15:06:28.095Z,21.20
2022-08-24T15:09:26.126Z,22.92
2022-08-24T15:12:25.751Z,23.25
2022-08-24T15:15:33.969Z,24.08
2022-08-24T15:18:37.048Z,25.02
2022-08-24T15:21:29.313Z,23.85
2022-08-24T15:24:34.236Z,19.40
2022-08-24T15:27:55.870Z,21.30
2022-08-24T15:31:10.996Z,17.85
2022-08-24T15:34:03.226Z,20.23
2022-08-24T15:36:59.667Z,24.23
2022-08-24T15:39:46.071Z,18.87
2022-08-24T15:42:35.435Z,17.00
2022-08-24T15:45:22.162Z,13.13
2022-08-24T15:48:12.317Z,16.20
2022-08-24T15:50:59.441Z,19.87
2022-08-24T15:53:45.777Z,15.43
2022-08-24T15:56:40.827Z,14.70
2022-08-24T15:59:32.436Z,14.93
2022-08-24T16:02:29.881Z,13.93
2022-08-24T16:05:21.515Z,17.25
2022-08-24T16:08:10.584Z,12.70
2022-08-24T16:10:57.367Z,16.73
2022-08-24T16:13:43.339Z,18.33
2022-08-24T16:16:38.909Z,13.45
2022-08-24T16:19:32.940Z,14.45
2022-08-24T16:22:29.990Z,15.60
2022-08-24T16:25:18.221Z,14.73
2022-08-24T16:28:22.070Z,14.00
2022-08-24T16:31:08.489Z,16.75
2022-08-24T16:34:09.982Z,18.12
2022-08-24T16:36:56.572Z,16.50
2022-08-24T16:39:43.460Z,15.88
2022-08-24T16:42:30.764Z,17.95
2022-08-24T16:45:20.277Z,16.52
2022-08-24T16:48:06.352Z,16.48
2022-08-24T16:50:52.653Z,16.87
2022-08-24T16:53:39.386Z,14.30
2022-08-24T16:56:26.009Z,13.80
2022-08-24T16:59:17.560Z,13.27
2022-08-24T17:02:04.358Z,12.93
2022-08-24T17:04:52.125Z,12.50
2022-08-24T17:07:38.978Z,15.30
2022-08-24T17:10:27.566Z,18.48
2022-08-24T17:13:33.071Z,13.80
2022-08-24T17:16:21.675Z,12.25
2022-08-24T17:19:12.052Z,13.77
2022-08-24T17:21:58.503Z,15.88
2022-08-24T17:24:45.560Z,14.52
2022-08-24T17:27:35.181Z,11.93
2022-08-24T17:30:25.996Z,14.50
2022-08-24T17:33:16.556Z,16.48
2022-08-24T17:36:05.370Z,14.10
2022-08-24T17:38:55.870Z,16.30
2022-08-24T17:41:42.482Z,13.80
2022-08-24T17:44:33.424Z,11.93
2022-08-24T17:47:19.817Z,12.60
2022-08-24T17:50:10.182Z,15.40
2022-08-24T17:53:00.251Z,14.27
2022-08-24T17:55:47.403Z,14.57
2022-08-24T17:58:54.142Z,14.13
2022-08-24T18:01:40.247Z,19.77
2022-08-24T18:04:29.858Z,14.75
2022-08-24T18:07:30.611Z,15.48
2022-08-24T18:10:32.248Z,13.80
2022-08-24T18:13:18.698Z,16.35
2022-08-24T18:16:05.258Z,14.93
2022-08-24T18:18:52.672Z,13.70
2022-08-24T18:21:42.101Z,14.45
2022-08-24T18:24:32.468Z,13.50
2022-08-24T18:27:29.292Z,16.25
2022-08-24T18:30:22.492Z,19.08
2022-08-24T18:33:12.314Z,19.92
2022-08-24T18:35:59.014Z,13.73
2022-08-24T18:38:47.550Z,15.00
2022-08-24T18:41:38.473Z,16.50
2022-08-24T18:44:29.536Z,16.67
2022-08-24T18:47:17.997Z,16.23
2022-08-24T18:50:07.019Z,15.25
2022-08-24T18:52:55.856Z,17.20
2022-08-24T18:55:46.163Z,15.27
2022-08-24T18:58:33.783Z,16.98
2022-08-24T19:01:22.473Z,17.37
2022-08-24T19:04:13.981Z,16.62
2022-08-24T19:07:01.193Z,14.63
2022-08-24T19:09:48.355Z,15.60
2022-08-24T19:12:39.882Z,13.80
2022-08-24T19:15:39.069Z,15.48
2022-08-24T19:18:26.646Z,15.30
2022-08-24T19:21:13.237Z,14.50
2022-08-24T19:24:01.308Z,13.65
2022-08-24T19:26:47.848Z,13.38
2022-08-24T19:32:43.944Z,14.13
2022-08-24T19:35:34.866Z,15.75
2022-08-24T19:38:25.537Z,17.70
2022-08-24T19:41:17.574Z,14.80
2022-08-24T19:44:27.716Z,13.88
2022-08-24T19:47:14.858Z,12.27
2022-08-24T19:50:02.309Z,18.27
2022-08-24T19:52:48.773Z,15.30
2022-08-24T19:55:35.262Z,13.00
2022-08-24T19:58:45.046Z,20.58
2022-08-24T20:01:34.810Z,12.77
2022-08-24T20:04:24.925Z,15.32
2022-08-24T20:07:14.820Z,13.20
2022-08-24T20:10:01.260Z,14.70
2022-08-24T20:13:00.354Z,15.40
2022-08-24T20:15:46.772Z,14.25
2022-08-24T20:18:35.354Z,15.48
2022-08-24T20:21:27.081Z,14.63
2022-08-24T20:24:16.555Z,16.73
2022-08-24T20:27:03.284Z,20.17
2022-08-24T20:29:49.886Z,16.80
2022-08-24T20:32:36.467Z,17.52
2022-08-24T20:35:29.310Z,16.40
2022-08-24T20:38:18.594Z,14.13
2022-08-24T20:41:04.639Z,13.43
2022-08-24T20:43:51.058Z,15.93
2022-08-24T20:46:38.563Z,15.90
2022-08-24T20:49:26.767Z,12.23
2022-08-24T20:52:13.093Z,16.02
2022-08-24T20:54:59.742Z,15.40
2022-08-24T20:57:52.063Z,16.17
2022-08-24T21:00:41.011Z,14.82
2022-08-24T21:03:27.293Z,15.07
2022-08-24T21:06:16.936Z,13.27
2022-08-24T21:09:05.360Z,13.77
2022-08-24T21:11:52.123Z,14.87
2022-08-24T21:14:38.193Z,13.50
2022-08-24T21:17:25.502Z,16.73
2022-08-24T21:20:13.557Z,17.12
2022-08-24T21:23:00.064Z,13.35
2022-08-24T21:25:47.141Z,11.43
2022-08-24T21:28:36.978Z,13.98
2022-08-24T21:31:23.209Z,14.00
2022-08-24T21:34:28.167Z,18.40
2022-08-24T21:37:17.887Z,15.60
2022-08-24T21:40:06.856Z,12.25
2022-08-24T21:42:53.221Z,13.90
2022-08-24T21:45:41.445Z,22.50
2022-08-24T21:48:27.611Z,15.68
2022-08-24T21:51:14.092Z,12.77
2022-08-24T21:54:00.416Z,15.20
2022-08-24T21:56:46.763Z,14.35
2022-08-24T21:59:34.178Z,15.75
2022-08-24T22:02:20.769Z,14.57
2022-08-24T22:05:07.674Z,13.90
2022-08-24T22:07:53.822Z,14.55
2022-08-24T22:10:40.058Z,11.98
2022-08-24T22:13:27.205Z,16.05
2022-08-24T22:16:14.147Z,11.90
2022-08-24T22:19:00.525Z,15.60
2022-08-24T22:21:48.129Z,11.12
2022-08-24T22:24:36.322Z,15.57
2022-08-24T22:27:24.959Z,16.62
2022-08-24T22:30:17.124Z,13.30
2022-08-24T22:33:05.177Z,13.23
2022-08-24T22:35:52.128Z,12.55
2022-08-24T22:38:39.346Z,11.20
2022-08-24T22:41:27.302Z,15.38
2022-08-24T22:44:20.278Z,14.93
2022-08-24T22:47:10.915Z,13.18
2022-08-24T22:50:01.785Z,10.68
2022-08-24T22:52:48.054Z,14.13
2022-08-24T22:55:34.527Z,13.98
2022-08-24T22:58:20.866Z,11.55
2022-08-24T23:01:07.107Z,12.57
2022-08-24T23:03:55.414Z,13.32
2022-08-24T23:06:42.116Z,15.65
2022-08-24T23:09:28.391Z,17.60
2022-08-24T23:12:22.482Z,14.05
2022-08-24T23:15:09.254Z,11.90
2022-08-24T23:17:55.600Z,14.55
2022-08-24T23:20:41.832Z,14.75
2022-08-24T23:23:28.186Z,10.82
2022-08-24T23:26:18.121Z,20.85
2022-08-24T23:29:06.378Z,11.15
2022-08-24T23:31:53.921Z,13.52
2022-08-24T23:34:40.656Z,11.75
2022-08-24T23:37:27.413Z,17.30
2022-08-24T23:40:13.689Z,14.75
2022-08-24T23:42:59.947Z,14.75
2022-08-24T23:45:46.491Z,11.60
2022-08-24T23:48:33.133Z,12.57
2022-08-24T23:51:20.332Z,10.27
2022-08-24T23:54:07.684Z,16.23
2022-08-24T23:56:54.421Z,15.63
2022-08-24T23:59:40.639Z,16.25
